sensor_id;sensor_type;location;lat;lon;timestamp;P1;durP1;ratioP1;P2;durP2;ratioP2
15706;SDS011;7953;54.302;10.128;2023-12-07T00:00:33;163.23;;;64.50;;
15706;SDS011;7953;54.302;10.128;2023-12-07T00:03:00;144.20;;;62.37;;
15706;SDS011;7953;54.302;10.128;2023-12-07T00:05:27;148.70;;;59.63;;
15706;SDS011;7953;54.302;10.128;2023-12-07T00:07:55;154.27;;;61.70;;
15706;SDS011;7953;54.302;10.128;2023-12-07T00:10:22;165.37;;;66.23;;
15706;SDS011;7953;54.302;10.128;2023-12-07T00:12:48;172.83;;;64.57;;
15706;SDS011;7953;54.302;10.128;2023-12-07T00:15:15;174.57;;;65.27;;
15706;SDS011;7953;54.302;10.128;2023-12-07T00:17:42;153.90;;;63.03;;
15706;SDS011;7953;54.302;10.128;2023-12-07T00:20:09;182.07;;;63.23;;
15706;SDS011;7953;54.302;10.128;2023-12-07T00:22:37;170.93;;;66.97;;
15706;SDS011;7953;54.302;10.128;2023-12-07T00:25:06;192.00;;;69.60;;
15706;SDS011;7953;54.302;10.128;2023-12-07T00:27:33;163.37;;;62.30;;
15706;SDS011;7953;54.302;10.128;2023-12-07T00:30:00;162.53;;;65.97;;
15706;SDS011;7953;54.302;10.128;2023-12-07T00:32:28;164.63;;;64.83;;
15706;SDS011;7953;54.302;10.128;2023-12-07T00:34:55;162.20;;;63.40;;
15706;SDS011;7953;54.302;10.128;2023-12-07T00:37:22;163.77;;;63.37;;
15706;SDS011;7953;54.302;10.128;2023-12-07T00:39:49;190.30;;;69.30;;
15706;SDS011;7953;54.302;10.128;2023-12-07T00:42:17;176.57;;;62.47;;
15706;SDS011;7953;54.302;10.128;2023-12-07T00:44:44;173.53;;;65.17;;
15706;SDS011;7953;54.302;10.128;2023-12-07T00:47:11;161.73;;;60.37;;
15706;SDS011;7953;54.302;10.128;2023-12-07T00:49:38;157.63;;;61.40;;
15706;SDS011;7953;54.302;10.128;2023-12-07T00:52:05;167.93;;;64.83;;
15706;SDS011;7953;54.302;10.128;2023-12-07T00:54:32;162.20;;;62.17;;
15706;SDS011;7953;54.302;10.128;2023-12-07T00:56:59;154.53;;;58.40;;
15706;SDS011;7953;54.302;10.128;2023-12-07T00:59:27;169.13;;;62.23;;
15706;SDS011;7953;54.302;10.128;2023-12-07T01:01:58;149.70;;;60.27;;
15706;SDS011;7953;54.302;10.128;2023-12-07T01:04:26;158.03;;;58.43;;
15706;SDS011;7953;54.302;10.128;2023-12-07T01:06:53;153.97;;;58.10;;
15706;SDS011;7953;54.302;10.128;2023-12-07T01:09:20;180.60;;;63.57;;
15706;SDS011;7953;54.302;10.128;2023-12-07T01:11:47;210.73;;;66.53;;
15706;SDS011;7953;54.302;10.128;2023-12-07T01:14:13;216.73;;;63.13;;
15706;SDS011;7953;54.302;10.128;2023-12-07T01:16:42;166.83;;;59.80;;
15706;SDS011;7953;54.302;10.128;2023-12-07T01:19:09;169.03;;;58.53;;
15706;SDS011;7953;54.302;10.128;2023-12-07T01:21:39;172.43;;;61.27;;
15706;SDS011;7953;54.302;10.128;2023-12-07T01:24:06;202.03;;;63.07;;
15706;SDS011;7953;54.302;10.128;2023-12-07T01:26:33;149.57;;;58.53;;
15706;SDS011;7953;54.302;10.128;2023-12-07T01:28:59;191.10;;;60.93;;
15706;SDS011;7953;54.302;10.128;2023-12-07T01:31:27;180.60;;;58.83;;
15706;SDS011;7953;54.302;10.128;2023-12-07T01:33:55;149.50;;;59.23;;
15706;SDS011;7953;54.302;10.128;2023-12-07T01:36:22;154.27;;;59.30;;
15706;SDS011;7953;54.302;10.128;2023-12-07T01:38:49;155.80;;;57.87;;
15706;SDS011;7953;54.302;10.128;2023-12-07T01:41:17;152.60;;;58.97;;
15706;SDS011;7953;54.302;10.128;2023-12-07T01:43:44;162.60;;;59.47;;
15706;SDS011;7953;54.302;10.128;2023-12-07T01:46:11;159.23;;;54.50;;
15706;SDS011;7953;54.302;10.128;2023-12-07T01:48:39;230.00;;;62.17;;
15706;SDS011;7953;54.302;10.128;2023-12-07T01:51:07;197.80;;;57.60;;
15706;SDS011;7953;54.302;10.128;2023-12-07T01:53:35;154.07;;;55.97;;
15706;SDS011;7953;54.302;10.128;2023-12-07T01:56:03;198.93;;;60.53;;
15706;SDS011;7953;54.302;10.128;2023-12-07T01:58:30;195.10;;;62.67;;
15706;SDS011;7953;54.302;10.128;2023-12-07T02:00:57;162.40;;;57.57;;
15706;SDS011;7953;54.302;10.128;2023-12-07T02:03:24;183.07;;;62.20;;
15706;SDS011;7953;54.302;10.128;2023-12-07T02:05:55;219.53;;;60.00;;
15706;SDS011;7953;54.302;10.128;2023-12-07T02:08:25;177.60;;;58.00;;
15706;SDS011;7953;54.302;10.128;2023-12-07T02:10:51;193.33;;;56.43;;
15706;SDS011;7953;54.302;10.128;2023-12-07T02:13:19;176.10;;;55.47;;
15706;SDS011;7953;54.302;10.128;2023-12-07T02:15:46;164.70;;;54.37;;
15706;SDS011;7953;54.302;10.128;2023-12-07T02:18:14;178.10;;;55.53;;
15706;SDS011;7953;54.302;10.128;2023-12-07T02:20:45;261.57;;;62.17;;
15706;SDS011;7953;54.302;10.128;2023-12-07T02:23:18;157.47;;;57.00;;
15706;SDS011;7953;54.302;10.128;2023-12-07T02:25:48;137.27;;;53.40;;
15706;SDS011;7953;54.302;10.128;2023-12-07T02:28:19;249.50;;;58.53;;
15706;SDS011;7953;54.302;10.128;2023-12-07T02:30:46;166.40;;;54.83;;
15706;SDS011;7953;54.302;10.128;2023-12-07T02:33:13;170.27;;;55.63;;
15706;SDS011;7953;54.302;10.128;2023-12-07T02:35:40;173.97;;;54.40;;
15706;SDS011;7953;54.302;10.128;2023-12-07T02:38:07;193.13;;;56.83;;
15706;SDS011;7953;54.302;10.128;2023-12-07T02:40:35;194.23;;;55.03;;
15706;SDS011;7953;54.302;10.128;2023-12-07T02:43:03;236.03;;;57.30;;
15706;SDS011;7953;54.302;10.128;2023-12-07T02:45:31;129.30;;;50.50;;
15706;SDS011;7953;54.302;10.128;2023-12-07T02:47:59;229.37;;;59.40;;
15706;SDS011;7953;54.302;10.128;2023-12-07T02:50:26;192.73;;;52.63;;
15706;SDS011;7953;54.302;10.128;2023-12-07T02:52:53;176.97;;;52.37;;
15706;SDS011;7953;54.302;10.128;2023-12-07T02:55:21;144.57;;;51.17;;
15706;SDS011;7953;54.302;10.128;2023-12-07T02:57:47;167.20;;;53.73;;
15706;SDS011;7953;54.302;10.128;2023-12-07T03:00:16;182.17;;;50.60;;
15706;SDS011;7953;54.302;10.128;2023-12-07T03:02:45;180.97;;;55.23;;
15706;SDS011;7953;54.302;10.128;2023-12-07T03:05:13;143.07;;;49.40;;
15706;SDS011;7953;54.302;10.128;2023-12-07T03:07:40;140.40;;;48.90;;
15706;SDS011;7953;54.302;10.128;2023-12-07T03:10:07;126.80;;;50.23;;
15706;SDS011;7953;54.302;10.128;2023-12-07T03:12:34;204.57;;;55.97;;
15706;SDS011;7953;54.302;10.128;2023-12-07T03:15:01;147.93;;;50.70;;
15706;SDS011;7953;54.302;10.128;2023-12-07T03:17:28;122.73;;;49.60;;
15706;SDS011;7953;54.302;10.128;2023-12-07T03:19:56;145.53;;;52.47;;
15706;SDS011;7953;54.302;10.128;2023-12-07T03:22:23;136.73;;;50.70;;
15706;SDS011;7953;54.302;10.128;2023-12-07T03:24:50;138.20;;;51.77;;
15706;SDS011;7953;54.302;10.128;2023-12-07T03:27:18;151.37;;;50.17;;
15706;SDS011;7953;54.302;10.128;2023-12-07T03:29:45;128.47;;;49.77;;
15706;SDS011;7953;54.302;10.128;2023-12-07T03:32:12;193.63;;;53.07;;
15706;SDS011;7953;54.302;10.128;2023-12-07T03:34:39;157.13;;;54.00;;
15706;SDS011;7953;54.302;10.128;2023-12-07T03:37:07;152.07;;;51.33;;
15706;SDS011;7953;54.302;10.128;2023-12-07T03:39:34;135.73;;;53.30;;
15706;SDS011;7953;54.302;10.128;2023-12-07T03:42:01;169.03;;;53.53;;
15706;SDS011;7953;54.302;10.128;2023-12-07T03:44:28;133.00;;;50.33;;
15706;SDS011;7953;54.302;10.128;2023-12-07T03:46:56;134.60;;;50.63;;
15706;SDS011;7953;54.302;10.128;2023-12-07T03:49:22;159.93;;;53.73;;
15706;SDS011;7953;54.302;10.128;2023-12-07T03:51:49;135.47;;;49.37;;
15706;SDS011;7953;54.302;10.128;2023-12-07T03:54:18;135.50;;;50.73;;
15706;SDS011;7953;54.302;10.128;2023-12-07T03:56:45;142.50;;;53.90;;
15706;SDS011;7953;54.302;10.128;2023-12-07T03:59:12;161.37;;;54.77;;
15706;SDS011;7953;54.302;10.128;2023-12-07T04:01:38;152.00;;;51.87;;
15706;SDS011;7953;54.302;10.128;2023-12-07T04:04:05;150.67;;;53.50;;
15706;SDS011;7953;54.302;10.128;2023-12-07T04:06:32;133.20;;;51.03;;
15706;SDS011;7953;54.302;10.128;2023-12-07T04:08:59;147.73;;;52.87;;
15706;SDS011;7953;54.302;10.128;2023-12-07T04:11:27;126.17;;;50.33;;
15706;SDS011;7953;54.302;10.128;2023-12-07T04:13:54;120.03;;;51.97;;
15706;SDS011;7953;54.302;10.128;2023-12-07T04:16:21;144.83;;;56.77;;
15706;SDS011;7953;54.302;10.128;2023-12-07T04:18:48;147.53;;;51.93;;
15706;SDS011;7953;54.302;10.128;2023-12-07T04:21:15;184.83;;;58.13;;
15706;SDS011;7953;54.302;10.128;2023-12-07T04:23:42;143.67;;;53.63;;
15706;SDS011;7953;54.302;10.128;2023-12-07T04:26:09;160.63;;;55.27;;
15706;SDS011;7953;54.302;10.128;2023-12-07T04:28:37;186.63;;;56.13;;
15706;SDS011;7953;54.302;10.128;2023-12-07T04:31:04;120.87;;;47.90;;
15706;SDS011;7953;54.302;10.128;2023-12-07T04:33:31;146.57;;;55.17;;
15706;SDS011;7953;54.302;10.128;2023-12-07T04:35:58;192.57;;;59.77;;
15706;SDS011;7953;54.302;10.128;2023-12-07T04:38:25;164.93;;;55.53;;
15706;SDS011;7953;54.302;10.128;2023-12-07T04:40:52;160.37;;;55.07;;
15706;SDS011;7953;54.302;10.128;2023-12-07T04:43:19;150.60;;;54.83;;
15706;SDS011;7953;54.302;10.128;2023-12-07T04:45:47;138.70;;;49.90;;
15706;SDS011;7953;54.302;10.128;2023-12-07T04:48:14;151.17;;;55.43;;
15706;SDS011;7953;54.302;10.128;2023-12-07T04:50:41;166.30;;;59.13;;
15706;SDS011;7953;54.302;10.128;2023-12-07T04:53:07;182.73;;;56.10;;
15706;SDS011;7953;54.302;10.128;2023-12-07T04:55:34;142.80;;;54.80;;
15706;SDS011;7953;54.302;10.128;2023-12-07T04:58:01;132.03;;;51.70;;
15706;SDS011;7953;54.302;10.128;2023-12-07T05:00:28;126.40;;;50.17;;
15706;SDS011;7953;54.302;10.128;2023-12-07T05:02:56;126.67;;;50.03;;
15706;SDS011;7953;54.302;10.128;2023-12-07T05:05:23;130.20;;;52.83;;
15706;SDS011;7953;54.302;10.128;2023-12-07T05:07:50;126.00;;;52.33;;
15706;SDS011;7953;54.302;10.128;2023-12-07T05:10:17;132.93;;;50.03;;
15706;SDS011;7953;54.302;10.128;2023-12-07T05:12:44;141.00;;;52.50;;
15706;SDS011;7953;54.302;10.128;2023-12-07T05:15:11;149.07;;;54.83;;
15706;SDS011;7953;54.302;10.128;2023-12-07T05:17:38;119.10;;;47.80;;
15706;SDS011;7953;54.302;10.128;2023-12-07T05:20:07;150.60;;;52.10;;
15706;SDS011;7953;54.302;10.128;2023-12-07T05:22:35;116.27;;;48.47;;
15706;SDS011;7953;54.302;10.128;2023-12-07T05:25:01;148.50;;;53.27;;
15706;SDS011;7953;54.302;10.128;2023-12-07T05:27:29;145.60;;;54.17;;
15706;SDS011;7953;54.302;10.128;2023-12-07T05:29:56;136.63;;;54.40;;
15706;SDS011;7953;54.302;10.128;2023-12-07T05:32:23;119.03;;;49.80;;
15706;SDS011;7953;54.302;10.128;2023-12-07T05:34:50;182.73;;;56.77;;
15706;SDS011;7953;54.302;10.128;2023-12-07T05:37:18;132.80;;;52.93;;
15706;SDS011;7953;54.302;10.128;2023-12-07T05:39:45;185.97;;;58.07;;
15706;SDS011;7953;54.302;10.128;2023-12-07T05:42:12;134.53;;;53.13;;
15706;SDS011;7953;54.302;10.128;2023-12-07T05:44:39;145.00;;;52.87;;
15706;SDS011;7953;54.302;10.128;2023-12-07T05:47:06;141.30;;;54.97;;
15706;SDS011;7953;54.302;10.128;2023-12-07T05:49:33;131.47;;;55.37;;
15706;SDS011;7953;54.302;10.128;2023-12-07T05:52:00;135.87;;;54.27;;
15706;SDS011;7953;54.302;10.128;2023-12-07T05:54:28;185.10;;;58.73;;
15706;SDS011;7953;54.302;10.128;2023-12-07T05:56:55;147.03;;;53.80;;
15706;SDS011;7953;54.302;10.128;2023-12-07T05:59:22;137.13;;;54.23;;
15706;SDS011;7953;54.302;10.128;2023-12-07T06:01:50;143.53;;;54.50;;
15706;SDS011;7953;54.302;10.128;2023-12-07T06:04:18;138.17;;;52.00;;
15706;SDS011;7953;54.302;10.128;2023-12-07T06:06:45;160.43;;;55.07;;
15706;SDS011;7953;54.302;10.128;2023-12-07T06:09:12;146.67;;;53.00;;
15706;SDS011;7953;54.302;10.128;2023-12-07T06:11:41;183.07;;;57.43;;
15706;SDS011;7953;54.302;10.128;2023-12-07T06:14:07;135.10;;;52.07;;
15706;SDS011;7953;54.302;10.128;2023-12-07T06:16:34;138.67;;;50.23;;
15706;SDS011;7953;54.302;10.128;2023-12-07T06:19:01;118.73;;;48.60;;
15706;SDS011;7953;54.302;10.128;2023-12-07T06:21:29;331.40;;;74.37;;
15706;SDS011;7953;54.302;10.128;2023-12-07T06:23:56;156.33;;;52.43;;
15706;SDS011;7953;54.302;10.128;2023-12-07T06:26:24;160.03;;;54.67;;
15706;SDS011;7953;54.302;10.128;2023-12-07T06:28:52;129.67;;;49.37;;
15706;SDS011;7953;54.302;10.128;2023-12-07T06:31:19;160.50;;;50.80;;
15706;SDS011;7953;54.302;10.128;2023-12-07T06:33:46;144.60;;;51.77;;
15706;SDS011;7953;54.302;10.128;2023-12-07T06:36:17;133.53;;;50.93;;
15706;SDS011;7953;54.302;10.128;2023-12-07T06:38:45;166.13;;;54.70;;
15706;SDS011;7953;54.302;10.128;2023-12-07T06:41:12;141.60;;;50.73;;
15706;SDS011;7953;54.302;10.128;2023-12-07T06:43:40;149.37;;;53.03;;
15706;SDS011;7953;54.302;10.128;2023-12-07T06:46:08;168.97;;;52.30;;
15706;SDS011;7953;54.302;10.128;2023-12-07T06:48:35;135.23;;;50.73;;
15706;SDS011;7953;54.302;10.128;2023-12-07T06:51:02;136.60;;;49.93;;
15706;SDS011;7953;54.302;10.128;2023-12-07T06:53:30;128.77;;;50.37;;
15706;SDS011;7953;54.302;10.128;2023-12-07T06:55:57;169.07;;;55.07;;
15706;SDS011;7953;54.302;10.128;2023-12-07T06:58:24;137.53;;;51.03;;
15706;SDS011;7953;54.302;10.128;2023-12-07T07:00:51;211.67;;;58.03;;
15706;SDS011;7953;54.302;10.128;2023-12-07T07:03:19;133.23;;;51.20;;
15706;SDS011;7953;54.302;10.128;2023-12-07T07:05:47;135.20;;;52.73;;
15706;SDS011;7953;54.302;10.128;2023-12-07T07:08:14;118.83;;;45.97;;
15706;SDS011;7953;54.302;10.128;2023-12-07T07:10:40;194.73;;;56.20;;
15706;SDS011;7953;54.302;10.128;2023-12-07T07:13:07;171.77;;;56.07;;
15706;SDS011;7953;54.302;10.128;2023-12-07T07:15:34;158.63;;;51.83;;
15706;SDS011;7953;54.302;10.128;2023-12-07T07:18:01;137.53;;;49.77;;
15706;SDS011;7953;54.302;10.128;2023-12-07T07:20:29;176.43;;;54.03;;
15706;SDS011;7953;54.302;10.128;2023-12-07T07:22:56;146.90;;;51.57;;
15706;SDS011;7953;54.302;10.128;2023-12-07T07:25:23;163.00;;;54.97;;
15706;SDS011;7953;54.302;10.128;2023-12-07T07:27:50;115.97;;;49.13;;
15706;SDS011;7953;54.302;10.128;2023-12-07T07:30:19;163.50;;;51.13;;
15706;SDS011;7953;54.302;10.128;2023-12-07T07:32:46;190.07;;;55.97;;
15706;SDS011;7953;54.302;10.128;2023-12-07T07:35:13;159.07;;;50.00;;
15706;SDS011;7953;54.302;10.128;2023-12-07T07:37:42;106.13;;;44.87;;
15706;SDS011;7953;54.302;10.128;2023-12-07T07:40:10;267.20;;;58.07;;
15706;SDS011;7953;54.302;10.128;2023-12-07T07:42:37;128.93;;;47.90;;
15706;SDS011;7953;54.302;10.128;2023-12-07T07:45:05;158.13;;;47.77;;
15706;SDS011;7953;54.302;10.128;2023-12-07T07:47:33;113.33;;;43.07;;
15706;SDS011;7953;54.302;10.128;2023-12-07T07:50:00;118.90;;;45.40;;
15706;SDS011;7953;54.302;10.128;2023-12-07T07:52:30;145.03;;;49.80;;
15706;SDS011;7953;54.302;10.128;2023-12-07T07:54:59;161.27;;;51.23;;
15706;SDS011;7953;54.302;10.128;2023-12-07T07:57:26;157.87;;;48.90;;
15706;SDS011;7953;54.302;10.128;2023-12-07T07:59:53;138.67;;;48.80;;
15706;SDS011;7953;54.302;10.128;2023-12-07T08:02:20;130.53;;;47.37;;
15706;SDS011;7953;54.302;10.128;2023-12-07T08:04:47;126.80;;;48.30;;
15706;SDS011;7953;54.302;10.128;2023-12-07T08:07:14;181.37;;;50.30;;
15706;SDS011;7953;54.302;10.128;2023-12-07T08:09:41;118.63;;;47.13;;
15706;SDS011;7953;54.302;10.128;2023-12-07T08:12:09;211.10;;;53.97;;
15706;SDS011;7953;54.302;10.128;2023-12-07T08:14:36;153.27;;;48.43;;
15706;SDS011;7953;54.302;10.128;2023-12-07T08:17:03;122.00;;;47.33;;
15706;SDS011;7953;54.302;10.128;2023-12-07T08:19:30;133.60;;;47.60;;
15706;SDS011;7953;54.302;10.128;2023-12-07T08:21:57;141.23;;;49.63;;
15706;SDS011;7953;54.302;10.128;2023-12-07T08:24:24;176.00;;;51.23;;
15706;SDS011;7953;54.302;10.128;2023-12-07T08:26:51;171.33;;;50.07;;
15706;SDS011;7953;54.302;10.128;2023-12-07T08:29:19;138.77;;;47.87;;
15706;SDS011;7953;54.302;10.128;2023-12-07T08:31:46;149.73;;;46.43;;
15706;SDS011;7953;54.302;10.128;2023-12-07T08:34:13;164.20;;;50.03;;
15706;SDS011;7953;54.302;10.128;2023-12-07T08:36:40;121.50;;;45.47;;
15706;SDS011;7953;54.302;10.128;2023-12-07T08:39:07;116.13;;;45.47;;
15706;SDS011;7953;54.302;10.128;2023-12-07T08:41:34;115.87;;;43.53;;
15706;SDS011;7953;54.302;10.128;2023-12-07T08:44:02;132.97;;;46.23;;
15706;SDS011;7953;54.302;10.128;2023-12-07T08:46:30;134.77;;;46.03;;
15706;SDS011;7953;54.302;10.128;2023-12-07T08:48:57;115.43;;;44.63;;
15706;SDS011;7953;54.302;10.128;2023-12-07T08:51:24;120.53;;;46.83;;
15706;SDS011;7953;54.302;10.128;2023-12-07T08:53:51;133.67;;;47.20;;
15706;SDS011;7953;54.302;10.128;2023-12-07T08:56:18;152.77;;;48.77;;
15706;SDS011;7953;54.302;10.128;2023-12-07T08:58:45;115.53;;;42.37;;
15706;SDS011;7953;54.302;10.128;2023-12-07T09:01:12;129.50;;;47.87;;
15706;SDS011;7953;54.302;10.128;2023-12-07T09:03:40;169.57;;;46.00;;
15706;SDS011;7953;54.302;10.128;2023-12-07T09:06:07;145.50;;;46.90;;
15706;SDS011;7953;54.302;10.128;2023-12-07T09:08:34;137.00;;;43.87;;
15706;SDS011;7953;54.302;10.128;2023-12-07T09:11:01;126.07;;;44.87;;
15706;SDS011;7953;54.302;10.128;2023-12-07T09:13:28;118.67;;;43.73;;
15706;SDS011;7953;54.302;10.128;2023-12-07T09:15:55;149.67;;;45.53;;
15706;SDS011;7953;54.302;10.128;2023-12-07T09:18:23;148.70;;;45.73;;
15706;SDS011;7953;54.302;10.128;2023-12-07T09:20:51;141.37;;;48.63;;
15706;SDS011;7953;54.302;10.128;2023-12-07T09:23:18;134.17;;;42.33;;
15706;SDS011;7953;54.302;10.128;2023-12-07T09:25:45;127.93;;;43.83;;
15706;SDS011;7953;54.302;10.128;2023-12-07T09:28:12;123.47;;;45.50;;
15706;SDS011;7953;54.302;10.128;2023-12-07T09:30:39;141.10;;;45.80;;
15706;SDS011;7953;54.302;10.128;2023-12-07T09:33:06;136.10;;;45.03;;
15706;SDS011;7953;54.302;10.128;2023-12-07T09:35:32;205.40;;;49.47;;
15706;SDS011;7953;54.302;10.128;2023-12-07T09:38:01;137.10;;;46.63;;
15706;SDS011;7953;54.302;10.128;2023-12-07T09:40:29;129.90;;;44.90;;
15706;SDS011;7953;54.302;10.128;2023-12-07T09:42:56;140.97;;;45.73;;
15706;SDS011;7953;54.302;10.128;2023-12-07T09:45:23;130.27;;;44.53;;
15706;SDS011;7953;54.302;10.128;2023-12-07T09:47:50;131.90;;;46.60;;
15706;SDS011;7953;54.302;10.128;2023-12-07T09:50:18;117.17;;;43.23;;
15706;SDS011;7953;54.302;10.128;2023-12-07T09:52:47;132.53;;;45.73;;
15706;SDS011;7953;54.302;10.128;2023-12-07T09:55:17;154.97;;;45.30;;
15706;SDS011;7953;54.302;10.128;2023-12-07T09:57:45;124.13;;;45.57;;
15706;SDS011;7953;54.302;10.128;2023-12-07T10:00:13;119.37;;;43.93;;
15706;SDS011;7953;54.302;10.128;2023-12-07T10:02:40;119.33;;;42.57;;
15706;SDS011;7953;54.302;10.128;2023-12-07T10:05:08;129.40;;;44.03;;
15706;SDS011;7953;54.302;10.128;2023-12-07T10:07:39;126.57;;;44.67;;
15706;SDS011;7953;54.302;10.128;2023-12-07T10:10:07;119.43;;;44.17;;
15706;SDS011;7953;54.302;10.128;2023-12-07T10:12:43;124.13;;;42.27;;
15706;SDS011;7953;54.302;10.128;2023-12-07T10:15:12;147.60;;;44.33;;
15706;SDS011;7953;54.302;10.128;2023-12-07T10:17:45;131.27;;;43.03;;
15706;SDS011;7953;54.302;10.128;2023-12-07T10:20:14;136.57;;;40.70;;
15706;SDS011;7953;54.302;10.128;2023-12-07T10:22:41;110.43;;;41.10;;
15706;SDS011;7953;54.302;10.128;2023-12-07T10:25:09;125.23;;;40.33;;
15706;SDS011;7953;54.302;10.128;2023-12-07T10:27:40;112.87;;;40.27;;
15706;SDS011;7953;54.302;10.128;2023-12-07T10:30:09;130.97;;;44.17;;
15706;SDS011;7953;54.302;10.128;2023-12-07T10:32:37;164.17;;;51.30;;
15706;SDS011;7953;54.302;10.128;2023-12-07T10:35:06;133.20;;;44.73;;
15706;SDS011;7953;54.302;10.128;2023-12-07T10:37:33;127.77;;;43.60;;
15706;SDS011;7953;54.302;10.128;2023-12-07T10:40:01;115.80;;;42.30;;
15706;SDS011;7953;54.302;10.128;2023-12-07T10:42:32;114.97;;;41.50;;
15706;SDS011;7953;54.302;10.128;2023-12-07T10:45:03;104.90;;;38.83;;
15706;SDS011;7953;54.302;10.128;2023-12-07T10:47:32;133.27;;;42.10;;
15706;SDS011;7953;54.302;10.128;2023-12-07T10:50:02;129.17;;;43.80;;
15706;SDS011;7953;54.302;10.128;2023-12-07T10:52:36;122.97;;;41.17;;
15706;SDS011;7953;54.302;10.128;2023-12-07T10:55:03;135.23;;;43.50;;
15706;SDS011;7953;54.302;10.128;2023-12-07T10:57:34;107.40;;;42.47;;
15706;SDS011;7953;54.302;10.128;2023-12-07T11:00:04;128.80;;;41.87;;
15706;SDS011;7953;54.302;10.128;2023-12-07T11:02:33;110.57;;;41.70;;
15706;SDS011;7953;54.302;10.128;2023-12-07T11:05:01;110.90;;;40.77;;
15706;SDS011;7953;54.302;10.128;2023-12-07T11:07:39;114.37;;;41.80;;
15706;SDS011;7953;54.302;10.128;2023-12-07T11:10:14;106.77;;;40.67;;
15706;SDS011;7953;54.302;10.128;2023-12-07T11:12:48;127.57;;;43.97;;
15706;SDS011;7953;54.302;10.128;2023-12-07T11:15:20;103.03;;;41.63;;
15706;SDS011;7953;54.302;10.128;2023-12-07T11:17:49;172.50;;;46.40;;
15706;SDS011;7953;54.302;10.128;2023-12-07T11:20:20;132.43;;;43.97;;
15706;SDS011;7953;54.302;10.128;2023-12-07T11:22:47;111.90;;;42.67;;
15706;SDS011;7953;54.302;10.128;2023-12-07T11:25:16;113.60;;;41.80;;
15706;SDS011;7953;54.302;10.128;2023-12-07T11:27:44;108.33;;;39.27;;
15706;SDS011;7953;54.302;10.128;2023-12-07T11:30:13;105.73;;;39.50;;
15706;SDS011;7953;54.302;10.128;2023-12-07T11:32:42;121.50;;;43.83;;
15706;SDS011;7953;54.302;10.128;2023-12-07T11:35:14;125.77;;;42.50;;
15706;SDS011;7953;54.302;10.128;2023-12-07T11:38:00;107.60;;;39.13;;
15706;SDS011;7953;54.302;10.128;2023-12-07T11:40:30;101.57;;;41.10;;
15706;SDS011;7953;54.302;10.128;2023-12-07T11:42:58;102.70;;;39.57;;
15706;SDS011;7953;54.302;10.128;2023-12-07T11:45:41;112.23;;;39.33;;
15706;SDS011;7953;54.302;10.128;2023-12-07T11:48:15;107.37;;;39.67;;
15706;SDS011;7953;54.302;10.128;2023-12-07T11:50:56;105.07;;;41.27;;
15706;SDS011;7953;54.302;10.128;2023-12-07T11:53:25;89.70;;;39.40;;
15706;SDS011;7953;54.302;10.128;2023-12-07T11:55:53;101.67;;;42.77;;
15706;SDS011;7953;54.302;10.128;2023-12-07T11:58:20;106.30;;;42.60;;
15706;SDS011;7953;54.302;10.128;2023-12-07T12:00:47;97.37;;;39.90;;
15706;SDS011;7953;54.302;10.128;2023-12-07T12:03:16;102.07;;;40.80;;
15706;SDS011;7953;54.302;10.128;2023-12-07T12:05:42;92.07;;;39.03;;
15706;SDS011;7953;54.302;10.128;2023-12-07T12:08:10;103.33;;;41.90;;
15706;SDS011;7953;54.302;10.128;2023-12-07T12:10:37;89.83;;;39.07;;
15706;SDS011;7953;54.302;10.128;2023-12-07T12:13:07;99.03;;;40.93;;
15706;SDS011;7953;54.302;10.128;2023-12-07T12:15:35;107.00;;;42.60;;
15706;SDS011;7953;54.302;10.128;2023-12-07T12:18:01;90.43;;;39.27;;
15706;SDS011;7953;54.302;10.128;2023-12-07T12:20:31;101.50;;;40.47;;
15706;SDS011;7953;54.302;10.128;2023-12-07T12:22:58;108.27;;;41.50;;
15706;SDS011;7953;54.302;10.128;2023-12-07T12:25:26;107.57;;;39.97;;
15706;SDS011;7953;54.302;10.128;2023-12-07T12:27:56;110.33;;;44.73;;
15706;SDS011;7953;54.302;10.128;2023-12-07T12:30:26;101.40;;;42.17;;
15706;SDS011;7953;54.302;10.128;2023-12-07T12:32:53;112.83;;;44.07;;
15706;SDS011;7953;54.302;10.128;2023-12-07T12:35:21;109.07;;;41.70;;
15706;SDS011;7953;54.302;10.128;2023-12-07T12:37:50;106.43;;;41.47;;
15706;SDS011;7953;54.302;10.128;2023-12-07T12:40:17;108.40;;;41.47;;
15706;SDS011;7953;54.302;10.128;2023-12-07T12:42:46;109.53;;;41.10;;
15706;SDS011;7953;54.302;10.128;2023-12-07T12:45:13;125.27;;;50.83;;
15706;SDS011;7953;54.302;10.128;2023-12-07T12:47:40;114.00;;;46.57;;
15706;SDS011;7953;54.302;10.128;2023-12-07T12:50:08;100.80;;;45.60;;
15706;SDS011;7953;54.302;10.128;2023-12-07T12:52:36;121.13;;;47.50;;
15706;SDS011;7953;54.302;10.128;2023-12-07T12:55:07;110.93;;;42.10;;
15706;SDS011;7953;54.302;10.128;2023-12-07T12:57:36;108.93;;;43.23;;
15706;SDS011;7953;54.302;10.128;2023-12-07T13:00:04;104.20;;;40.90;;
15706;SDS011;7953;54.302;10.128;2023-12-07T13:02:33;106.53;;;41.13;;
15706;SDS011;7953;54.302;10.128;2023-12-07T13:05:00;107.37;;;41.63;;
15706;SDS011;7953;54.302;10.128;2023-12-07T13:07:27;100.80;;;41.27;;
15706;SDS011;7953;54.302;10.128;2023-12-07T13:09:54;96.67;;;37.57;;
15706;SDS011;7953;54.302;10.128;2023-12-07T13:12:22;109.47;;;44.07;;
15706;SDS011;7953;54.302;10.128;2023-12-07T13:14:52;97.17;;;40.83;;
15706;SDS011;7953;54.302;10.128;2023-12-07T13:17:20;95.17;;;39.77;;
15706;SDS011;7953;54.302;10.128;2023-12-07T13:19:47;101.37;;;42.83;;
15706;SDS011;7953;54.302;10.128;2023-12-07T13:22:14;88.13;;;39.57;;
15706;SDS011;7953;54.302;10.128;2023-12-07T13:24:40;87.17;;;39.07;;
15706;SDS011;7953;54.302;10.128;2023-12-07T13:27:07;94.37;;;45.30;;
15706;SDS011;7953;54.302;10.128;2023-12-07T13:29:35;95.57;;;43.13;;
15706;SDS011;7953;54.302;10.128;2023-12-07T13:32:02;85.77;;;39.07;;
15706;SDS011;7953;54.302;10.128;2023-12-07T13:34:30;95.33;;;40.70;;
15706;SDS011;7953;54.302;10.128;2023-12-07T13:36:57;93.90;;;41.33;;
15706;SDS011;7953;54.302;10.128;2023-12-07T13:39:24;94.40;;;37.97;;
15706;SDS011;7953;54.302;10.128;2023-12-07T13:41:51;87.63;;;39.13;;
15706;SDS011;7953;54.302;10.128;2023-12-07T13:44:19;101.37;;;39.60;;
15706;SDS011;7953;54.302;10.128;2023-12-07T13:46:47;90.13;;;37.43;;
15706;SDS011;7953;54.302;10.128;2023-12-07T13:49:14;89.70;;;37.33;;
15706;SDS011;7953;54.302;10.128;2023-12-07T13:51:41;91.47;;;37.63;;
15706;SDS011;7953;54.302;10.128;2023-12-07T13:54:08;85.33;;;35.73;;
15706;SDS011;7953;54.302;10.128;2023-12-07T13:56:35;87.83;;;38.37;;
15706;SDS011;7953;54.302;10.128;2023-12-07T13:59:02;93.60;;;37.93;;
15706;SDS011;7953;54.302;10.128;2023-12-07T14:01:31;93.37;;;38.03;;
15706;SDS011;7953;54.302;10.128;2023-12-07T14:03:59;90.77;;;38.53;;
15706;SDS011;7953;54.302;10.128;2023-12-07T14:06:27;83.57;;;37.37;;
15706;SDS011;7953;54.302;10.128;2023-12-07T14:08:53;76.63;;;34.63;;
15706;SDS011;7953;54.302;10.128;2023-12-07T14:11:20;83.57;;;36.77;;
15706;SDS011;7953;54.302;10.128;2023-12-07T14:13:47;80.50;;;35.90;;